Kandahar Airport
OAKN : now visible

Airfield :











YOU CAN JOIN US ON...

 
LOGIN :

Register | Disclaimer

   EN    FR    IT 

 









Legend :    VFR   Marginal VFR   IFR   Intensive IFR   Very Intensive IFR
Visi :
Ceiling :
>= 8 km
>= 3000ft
5 to 8 km
1000 to 3000 ft
1500m to 5 km
500 to 1000 ft
800 to 1500m
200 to 500 ft
< 800m
< 200 ft
Symbols :   Thunderstorms  Fog  Heavy snow  Heavy precipitations  Wind > 20 kt






- Airport Elevation : 3337 ft
- IATA code : KDH


OAKN - Kandahar

CURRENT METAR :
  • 250956Z AUTO 00000KT 9999 CLR 13/06 A3008 RMK AO2 SLP169 WND DATA ESTMD T01290058

EXPIRED METARs :
  • 250856Z 02003KT 9999 BKN100 13/05 A3010 RMK AO2A SLP176 WND DATA ESTMD T01270053 58015
  • 250756Z 03007KT 9999 FEW090 BKN100 12/05 A3013 RMK AO2A SLP189 WND DATA ESTMD T01200054

TAF AMD TAF OAKN
Valid from the 25 at 07:00 until the 26 at 13:00 UTC


250709Z 2507/2613 05009KT 9999 SCT080 QNH3007INS
BECMG 2510/2511 05006KT 9999 SCT080 QNH3006INS
BECMG 2514/2515 05006KT 9999 FEW040 QNH3007INS
BECMG 2517/2518 05006KT 8000 BR FEW040 QNH3006INS
TEMPO 2600/2604 6000 BR SCT040
BECMG 2605/2606 05012KT 9999 NSW FEW040 SCT080 QNH3000INS
BECMG 2611/2612 05012KT 9999 FEW040 BKN080 OVC120 QNH2996INS TX12/2511Z TN00/2602Z



MET'MAP, your aeronautical weather chart ! - Copyright ORBIFLY December 2007 - Disclaimer

ORBIFLY MET'MAP TEAM :

Programming & Development : Alexandra Zaïnal
Concept & original design : Baudouin d'Aumeries
Assistance for programming : Marc-Olivier Méhu
Technical & hardware support : Manuel Goepfert

Contact : metmap@orbifly.com




SOURCES & CREDITS :

   NOAA       Earth
Advisory